Time;durP1;ratioP1;P1;durP2;ratioP2;P2;SDS_P1;SDS_P2;PMS_P1;PMS_P2;Temp;Humidity;BMP_temperature;BMP_pressure;BME280_temperature;BME280_humidity;BME280_pressure;Samples;Min_cycle;Max_cycle;Signal;HPM_P1;HPM_P2
2022/04/24 00:00:10;;;;;;;2.75;2.53;;;18.50;36.50;;;;;;5071652;28;20040;-51
2022/04/24 00:02:39;;;;;;;3.85;2.58;;;18.50;36.60;;;;;;5066056;28;20057;-51
2022/04/24 00:05:10;;;;;;;3.90;3.08;;;18.50;36.60;;;;;;5066539;28;20098;-52
2022/04/24 00:07:39;;;;;;;3.38;2.63;;;18.40;36.80;;;;;;5066761;28;20040;-53
2022/04/24 00:10:06;;;;;;;2.50;2.25;;;18.40;36.50;;;;;;5063651;28;20480;-50
2022/04/24 00:12:33;;;;;;;3.10;2.72;;;18.40;36.70;;;;;;5055768;28;20066;-51
2022/04/24 00:14:59;;;;;;;4.25;3.15;;;18.40;36.60;;;;;;5069261;28;20040;-51
2022/04/24 00:17:26;;;;;;;3.55;2.90;;;18.30;36.70;;;;;;5052305;28;20040;-49
2022/04/24 00:19:57;;;;;;;3.42;3.15;;;18.30;36.50;;;;;;5071369;28;20055;-50
2022/04/24 00:22:24;;;;;;;2.67;2.47;;;18.30;37.00;;;;;;5064601;28;20044;-53
2022/04/24 00:24:54;;;;;;;5.10;3.00;;;18.20;36.90;;;;;;5065832;28;20596;-49
2022/04/24 00:27:23;;;;;;;2.80;2.60;;;18.20;36.90;;;;;;5070156;28;20416;-51
2022/04/24 00:29:52;;;;;;;3.97;2.92;;;18.20;36.90;;;;;;5070641;28;20571;-50
2022/04/24 00:32:18;;;;;;;3.10;2.90;;;18.10;37.20;;;;;;5064018;28;20051;-49
2022/04/24 00:34:48;;;;;;;14.27;3.80;;;18.10;37.50;;;;;;5052748;28;20062;-49
2022/04/24 00:37:19;;;;;;;2.88;2.60;;;18.00;37.40;;;;;;5052901;28;20067;-51
2022/04/24 00:39:46;;;;;;;4.03;3.15;;;18.00;37.90;;;;;;5070290;28;20114;-49
2022/04/24 00:42:13;;;;;;;3.78;3.35;;;18.00;37.90;;;;;;5059319;28;20068;-48
2022/04/24 00:44:44;;;;;;;3.38;3.08;;;17.90;38.00;;;;;;5068201;28;20169;-48
2022/04/24 00:47:34;;;;;;;2.58;2.38;;;17.90;38.20;;;;;;5061110;28;20099;-49
2022/04/24 00:50:01;;;;;;;4.15;2.83;;;17.90;38.50;;;;;;5066525;28;20488;-51
2022/04/24 00:52:33;;;;;;;3.35;3.05;;;17.80;38.40;;;;;;5068470;28;20496;-50
2022/04/24 00:55:00;;;;;;;4.10;3.70;;;17.80;38.60;;;;;;5069229;28;20063;-51
2022/04/24 00:57:27;;;;;;;3.03;2.70;;;17.80;38.80;;;;;;5070828;28;20055;-50
2022/04/24 00:59:54;;;;;;;3.20;2.90;;;17.80;39.10;;;;;;5063425;28;20552;-50
2022/04/24 01:02:26;;;;;;;3.53;3.22;;;17.80;39.30;;;;;;5065545;28;20531;-49
2022/04/24 01:04:56;;;;;;;4.88;3.60;;;17.70;39.30;;;;;;5069351;28;20079;-52
2022/04/24 01:07:24;;;;;;;4.07;3.70;;;17.70;38.90;;;;;;5069131;28;20090;-51
2022/04/24 01:09:57;;;;;;;4.10;3.75;;;17.70;39.20;;;;;;5066166;28;20832;-51
2022/04/24 01:12:23;;;;;;;3.47;3.17;;;17.70;39.90;;;;;;5068206;28;20037;-53
2022/04/24 01:14:50;;;;;;;4.18;3.60;;;17.60;39.20;;;;;;5068713;28;20029;-51
2022/04/24 01:17:19;;;;;;;3.80;3.17;;;17.60;39.30;;;;;;5066881;28;20090;-48
2022/04/24 01:19:47;;;;;;;3.67;3.38;;;17.60;39.20;;;;;;5064368;28;20037;-51
2022/04/24 01:22:20;;;;;;;3.65;3.35;;;17.70;39.60;;;;;;5068148;28;20511;-52
2022/04/24 01:24:57;;;;;;;3.97;3.58;;;17.50;39.40;;;;;;5068439;28;20059;-50
2022/04/24 01:27:23;;;;;;;4.35;3.38;;;17.50;39.20;;;;;;5068847;28;20115;-51
2022/04/24 01:29:51;;;;;;;5.65;4.20;;;17.50;39.70;;;;;;5065299;28;20093;-52
2022/04/24 01:32:18;;;;;;;4.15;3.63;;;17.50;39.60;;;;;;5068178;28;20040;-51
2022/04/24 01:34:50;;;;;;;3.88;3.25;;;17.40;39.70;;;;;;5069228;28;20044;-50
2022/04/24 01:37:17;;;;;;;4.25;3.45;;;17.30;39.50;;;;;;5066679;28;20663;-53
2022/04/24 01:39:46;;;;;;;3.95;3.55;;;17.30;39.60;;;;;;5065978;28;20542;-54
2022/04/24 01:42:12;;;;;;;4.45;4.05;;;17.20;39.90;;;;;;5068467;28;20090;-48
2022/04/24 01:44:44;;;;;;;4.65;3.67;;;17.20;39.80;;;;;;5066407;28;20120;-51
2022/04/24 01:47:11;;;;;;;4.68;3.90;;;17.10;39.80;;;;;;5062448;28;20106;-50
2022/04/24 01:49:38;;;;;;;3.97;3.58;;;17.00;40.70;;;;;;5061412;28;20056;-51
2022/04/24 01:52:14;;;;;;;4.60;4.03;;;16.90;40.10;;;;;;5067819;28;20063;-53
2022/04/24 01:54:41;;;;;;;4.97;3.65;;;16.90;40.40;;;;;;5062538;28;20040;-51
2022/04/24 01:57:09;;;;;;;4.80;4.40;;;16.70;40.40;;;;;;5064689;28;20075;-52
2022/04/24 01:59:38;;;;;;;4.10;3.78;;;16.70;40.50;;;;;;5069335;28;20090;-48
2022/04/24 02:02:07;;;;;;;4.38;3.97;;;16.60;40.70;;;;;;5069548;28;20064;-51
2022/04/24 02:04:34;;;;;;;4.13;3.83;;;16.50;40.60;;;;;;5067711;28;20041;-50
2022/04/24 02:07:01;;;;;;;3.97;3.60;;;16.40;40.90;;;;;;5065333;28;20116;-52
2022/04/24 02:09:32;;;;;;;5.68;4.28;;;16.40;41.20;;;;;;5069143;28;20106;-52
2022/04/24 02:12:00;;;;;;;4.55;4.00;;;16.30;41.20;;;;;;5069222;28;20037;-53
2022/04/24 02:14:37;;;;;;;4.10;3.60;;;16.20;41.40;;;;;;5061580;28;20115;-49
2022/04/24 02:17:10;;;;;;;4.28;3.88;;;16.10;41.40;;;;;;5064008;28;20036;-51
2022/04/24 02:19:39;;;;;;;4.20;3.65;;;16.10;41.50;;;;;;5069100;28;20037;-49
2022/04/24 02:22:06;;;;;;;4.43;4.03;;;16.00;41.70;;;;;;5060648;28;20725;-51
2022/04/24 02:24:33;;;;;;;4.07;3.78;;;15.90;41.80;;;;;;5057542;28;20064;-51
2022/04/24 02:27:02;;;;;;;5.20;4.22;;;15.90;42.10;;;;;;5050108;28;20037;-51
2022/04/24 02:29:29;;;;;;;3.67;3.38;;;15.80;42.10;;;;;;5068601;28;20055;-52
2022/04/24 02:31:59;;;;;;;4.80;4.40;;;15.70;42.10;;;;;;5049189;28;20672;-49
2022/04/24 02:34:28;;;;;;;4.15;3.85;;;15.70;42.30;;;;;;5062061;28;20041;-51
2022/04/24 02:36:57;;;;;;;6.43;4.68;;;15.60;42.30;;;;;;5067878;28;20123;-48
2022/04/24 02:39:27;;;;;;;4.38;3.97;;;15.50;42.40;;;;;;5051508;28;20496;-51
2022/04/24 02:41:58;;;;;;;4.60;4.20;;;15.50;42.80;;;;;;5068098;28;20039;-53
2022/04/24 02:44:24;;;;;;;4.60;4.20;;;15.40;42.70;;;;;;5058894;28;20470;-50
2022/04/24 02:47:01;;;;;;;5.25;4.75;;;15.40;42.80;;;;;;5068044;28;20124;-49
2022/04/24 02:49:28;;;;;;;5.18;4.70;;;15.30;42.90;;;;;;5067554;28;20045;-47
2022/04/24 02:51:54;;;;;;;4.78;4.32;;;15.30;43.00;;;;;;5067851;28;20040;-52
2022/04/24 02:54:21;;;;;;;6.53;5.18;;;15.20;43.00;;;;;;5049092;28;20051;-49
2022/04/24 02:56:48;;;;;;;6.55;4.70;;;15.20;43.00;;;;;;5067587;28;20412;-51
2022/04/24 02:59:16;;;;;;;4.78;4.38;;;15.10;43.00;;;;;;5068612;28;20044;-51
2022/04/24 03:01:46;;;;;;;5.15;4.50;;;15.10;43.20;;;;;;5066768;28;20053;-51
2022/04/24 03:04:15;;;;;;;5.75;5.10;;;15.10;43.30;;;;;;5064042;28;20041;-54
2022/04/24 03:06:42;;;;;;;4.90;4.50;;;15.00;43.40;;;;;;5070303;28;20033;-48
2022/04/24 03:09:10;;;;;;;5.93;5.43;;;15.00;43.40;;;;;;5071516;28;20040;-53
2022/04/24 03:11:37;;;;;;;5.18;4.68;;;14.90;43.50;;;;;;5065655;28;20417;-49
2022/04/24 03:14:06;;;;;;;5.72;5.07;;;14.90;43.50;;;;;;5070655;28;20110;-54
2022/04/24 03:16:33;;;;;;;5.15;4.65;;;14.90;43.60;;;;;;5071256;28;20098;-47
2022/04/24 03:19:03;;;;;;;6.80;5.28;;;14.80;43.70;;;;;;5072236;28;20044;-48
2022/04/24 03:21:32;;;;;;;7.80;5.25;;;14.80;43.70;;;;;;5068286;28;20094;-51
2022/04/24 03:24:07;;;;;;;5.50;5.00;;;14.80;43.90;;;;;;5071370;28;20078;-51
2022/04/24 03:26:39;;;;;;;5.40;4.90;;;14.70;44.30;;;;;;5050908;28;20045;-51
2022/04/24 03:29:05;;;;;;;5.03;4.53;;;14.70;44.10;;;;;;5051345;28;20037;-52
2022/04/24 03:31:34;;;;;;;5.28;4.80;;;14.70;44.10;;;;;;5062980;28;20037;-51
2022/04/24 03:34:05;;;;;;;5.95;5.35;;;14.60;44.00;;;;;;5070675;28;20408;-56
2022/04/24 03:36:32;;;;;;;5.32;4.82;;;14.60;44.10;;;;;;5050188;28;20049;-53
2022/04/24 03:38:58;;;;;;;6.88;4.90;;;14.60;44.10;;;;;;5053859;28;20060;-51
2022/04/24 03:41:25;;;;;;;6.43;4.60;;;14.50;44.30;;;;;;5069889;28;20049;-50
2022/04/24 03:43:52;;;;;;;6.35;5.40;;;14.50;44.30;;;;;;5070629;28;20040;-52
2022/04/24 03:46:20;;;;;;;7.28;5.45;;;14.50;44.30;;;;;;5067324;28;20059;-51
2022/04/24 03:48:50;;;;;;;5.63;5.10;;;14.40;44.30;;;;;;5065976;28;20041;-52
2022/04/24 03:51:24;;;;;;;6.10;5.50;;;14.40;44.40;;;;;;5070686;28;20111;-55
2022/04/24 03:53:51;;;;;;;6.40;5.35;;;14.40;44.40;;;;;;5070977;28;20086;-52
2022/04/24 03:56:20;;;;;;;5.20;4.70;;;14.40;44.40;;;;;;5069668;28;20053;-53
2022/04/24 03:58:47;;;;;;;5.63;4.70;;;14.30;44.40;;;;;;5065352;28;20044;-53
2022/04/24 04:01:17;;;;;;;5.70;5.20;;;14.30;44.50;;;;;;5070861;28;20052;-48
2022/04/24 04:03:43;;;;;;;5.65;5.13;;;14.30;44.70;;;;;;5069976;28;20508;-51
2022/04/24 04:06:15;;;;;;;5.93;5.22;;;14.30;44.80;;;;;;5069099;28;20037;-51
2022/04/24 04:08:47;;;;;;;6.30;5.70;;;14.20;44.80;;;;;;5063774;28;20033;-47
2022/04/24 04:11:14;;;;;;;5.95;5.32;;;14.20;44.80;;;;;;5070719;28;20508;-49
2022/04/24 04:13:46;;;;;;;5.85;5.30;;;14.20;44.80;;;;;;5071332;28;20102;-52
2022/04/24 04:16:12;;;;;;;5.97;5.40;;;14.20;44.90;;;;;;5078328;28;20123;-53
2022/04/24 04:18:39;;;;;;;6.10;5.57;;;14.10;44.80;;;;;;5068421;28;20124;-49
2022/04/24 04:21:06;;;;;;;5.60;5.10;;;14.10;45.00;;;;;;5070331;28;20496;-49
2022/04/24 04:23:37;;;;;;;6.15;5.55;;;14.10;45.10;;;;;;5053896;28;20459;-51
2022/04/24 04:26:03;;;;;;;6.13;5.57;;;14.00;45.10;;;;;;5063701;28;20036;-49
2022/04/24 04:28:30;;;;;;;7.68;5.82;;;14.00;45.30;;;;;;5067710;28;20079;-50
2022/04/24 04:30:58;;;;;;;7.10;6.40;;;14.00;45.30;;;;;;5070073;28;20044;-48
2022/04/24 04:33:25;;;;;;;6.72;6.03;;;14.00;45.40;;;;;;5070435;28;20089;-47
2022/04/24 04:35:54;;;;;;;7.07;6.38;;;13.90;45.60;;;;;;5065822;28;20500;-52
2022/04/24 04:38:24;;;;;;;6.75;5.97;;;13.90;45.70;;;;;;5069242;28;20562;-51
2022/04/24 04:40:55;;;;;;;6.32;5.72;;;13.90;46.20;;;;;;5071243;28;20071;-48
2022/04/24 04:43:26;;;;;;;6.85;6.13;;;13.90;45.90;;;;;;5069188;28;20538;-51
2022/04/24 04:45:54;;;;;;;8.80;6.18;;;13.80;45.90;;;;;;5065131;28;20037;-49
2022/04/24 04:48:25;;;;;;;7.13;6.32;;;13.80;46.00;;;;;;5068174;28;20411;-50
2022/04/24 04:50:54;;;;;;;7.75;6.05;;;13.80;46.10;;;;;;5069279;28;20492;-47
2022/04/24 04:53:21;;;;;;;8.27;6.93;;;13.80;46.10;;;;;;5065948;28;20568;-47
2022/04/24 04:55:53;;;;;;;8.60;6.47;;;13.80;46.40;;;;;;5066407;28;20040;-46
2022/04/24 04:58:23;;;;;;;6.45;5.85;;;13.70;46.40;;;;;;5068029;28;20039;-49
2022/04/24 05:00:50;;;;;;;6.55;5.95;;;13.70;46.50;;;;;;5068708;28;20048;-50
2022/04/24 05:03:21;;;;;;;7.35;6.65;;;13.70;46.60;;;;;;5067747;28;20124;-50
2022/04/24 05:05:48;;;;;;;6.93;6.28;;;13.70;46.80;;;;;;5066464;28;20051;-50
2022/04/24 05:08:14;;;;;;;7.47;6.78;;;13.70;46.90;;;;;;5050957;28;20094;-53
2022/04/24 05:10:41;;;;;;;7.18;6.50;;;13.70;47.00;;;;;;5066586;28;20476;-49
2022/04/24 05:13:08;;;;;;;7.88;7.13;;;13.70;47.00;;;;;;5067158;28;20045;-52
2022/04/24 05:15:35;;;;;;;7.13;6.40;;;13.70;46.90;;;;;;5068740;28;20507;-51
2022/04/24 05:18:01;;;;;;;8.48;6.55;;;13.70;47.10;;;;;;5066007;28;20036;-48
2022/04/24 05:20:30;;;;;;;7.45;6.65;;;13.70;47.20;;;;;;5067506;28;20044;-51
2022/04/24 05:23:05;;;;;;;7.25;6.43;;;13.70;47.10;;;;;;5064446;28;20046;-52
2022/04/24 05:25:33;;;;;;;9.05;7.38;;;13.70;47.40;;;;;;5061613;28;20050;-53
2022/04/24 05:28:05;;;;;;;7.43;6.68;;;13.70;47.30;;;;;;5070115;28;20407;-47
2022/04/24 05:30:36;;;;;;;;;;;13.70;47.30;;;;;;5052089;28;20040;-47
2022/04/24 05:33:04;;;;;;;7.78;7.00;;;13.80;47.10;;;;;;5065577;28;20395;-50
2022/04/24 05:35:33;;;;;;;6.40;5.75;;;13.70;46.90;;;;;;5065899;28;20455;-52
2022/04/24 05:38:03;;;;;;;7.95;7.10;;;13.70;47.10;;;;;;5051937;28;20090;-49
2022/04/24 05:40:34;;;;;;;9.80;7.00;;;13.70;47.30;;;;;;5063700;28;20056;-50
2022/04/24 05:43:01;;;;;;;8.05;7.03;;;13.70;47.30;;;;;;5050526;28;20504;-48
2022/04/24 05:45:32;;;;;;;8.85;7.53;;;13.70;47.30;;;;;;5068644;28;20444;-53
2022/04/24 05:48:01;;;;;;;8.90;6.70;;;13.80;47.60;;;;;;5069290;28;20075;-51
2022/04/24 05:50:28;;;;;;;9.10;6.53;;;13.80;47.70;;;;;;5068508;28;20040;-49
2022/04/24 05:52:56;;;;;;;9.05;6.95;;;13.80;47.60;;;;;;5063361;28;20040;-52
2022/04/24 05:55:24;;;;;;;7.88;7.07;;;13.80;47.60;;;;;;5067164;28;20068;-48
2022/04/24 05:57:53;;;;;;;8.05;7.15;;;13.80;47.60;;;;;;5068327;28;20091;-50
2022/04/24 06:00:21;;;;;;;7.60;6.80;;;13.80;47.80;;;;;;5059253;28;20049;-52
2022/04/24 06:02:52;;;;;;;8.45;5.95;;;13.80;47.90;;;;;;5065428;28;20045;-54
2022/04/24 06:05:25;;;;;;;8.00;6.97;;;13.80;47.70;;;;;;5066784;28;20048;-51
2022/04/24 06:07:55;;;;;;;7.93;6.77;;;13.90;47.60;;;;;;5068578;28;20059;-51
2022/04/24 06:10:24;;;;;;;8.32;7.05;;;13.90;47.60;;;;;;5062639;28;20127;-50
2022/04/24 06:12:56;;;;;;;8.43;6.40;;;13.90;47.60;;;;;;5067818;28;20041;-52
2022/04/24 06:15:27;;;;;;;7.25;6.55;;;13.90;47.80;;;;;;5058285;28;20043;-54
2022/04/24 06:17:55;;;;;;;7.20;6.40;;;14.00;47.70;;;;;;5082896;22;20040;-48
2022/04/24 06:20:28;;;;;;;7.43;6.60;;;14.00;47.60;;;;;;5065604;28;20117;-47
2022/04/24 06:22:56;;;;;;;6.85;6.10;;;14.00;47.60;;;;;;5067797;28;20041;-47
2022/04/24 06:25:27;;;;;;;7.32;6.13;;;14.00;47.70;;;;;;5067299;28;20587;-48
2022/04/24 06:27:55;;;;;;;;;;;14.10;47.80;;;;;;5068700;28;20649;-48
2022/04/24 06:30:24;;;;;;;6.68;6.07;;;14.10;47.30;;;;;;5061471;28;19978;-50
2022/04/24 06:32:55;;;;;;;7.10;6.45;;;14.20;47.50;;;;;;5061301;28;20052;-48
2022/04/24 06:35:22;;;;;;;7.20;6.30;;;14.10;48.00;;;;;;5065020;28;20740;-48
2022/04/24 06:37:53;;;;;;;7.78;6.55;;;14.10;47.40;;;;;;5062618;28;20041;-49
2022/04/24 06:40:24;;;;;;;6.82;6.13;;;14.20;47.50;;;;;;5070352;28;20052;-48
2022/04/24 06:42:59;;;;;;;8.20;7.07;;;14.20;47.50;;;;;;5063020;28;20094;-49
2022/04/24 06:45:27;;;;;;;7.00;6.30;;;14.30;47.80;;;;;;5067833;28;20107;-48
2022/04/24 06:48:09;;;;;;;7.88;6.60;;;14.30;47.40;;;;;;5063595;28;20538;-48
2022/04/24 06:50:40;;;;;;;7.20;6.13;;;14.30;47.80;;;;;;5024223;28;20055;-49
2022/04/24 06:53:18;;;;;;;7.05;6.35;;;14.30;47.50;;;;;;5061395;28;20086;-50
2022/04/24 06:55:46;;;;;;;7.20;6.45;;;14.40;47.90;;;;;;5046399;28;20045;-49
2022/04/24 06:58:15;;;;;;;7.60;6.00;;;14.40;47.50;;;;;;5045034;28;20116;-51
2022/04/24 07:00:43;;;;;;;8.57;6.60;;;14.40;47.50;;;;;;5037603;28;20046;-48
2022/04/24 07:03:30;;;;;;;7.72;6.30;;;14.50;47.40;;;;;;5054929;28;20127;-49
2022/04/24 07:05:57;;;;;;;7.22;6.45;;;14.50;47.30;;;;;;5044137;28;20041;-48
2022/04/24 07:08:24;;;;;;;7.82;6.50;;;14.50;47.30;;;;;;5059734;28;20045;-49
2022/04/24 07:10:53;;;;;;;9.27;6.88;;;14.60;47.20;;;;;;5039908;28;20465;-49
2022/04/24 07:13:20;;;;;;;8.23;6.53;;;14.60;47.20;;;;;;5049692;28;20040;-50
2022/04/24 07:15:47;;;;;;;8.70;6.47;;;14.60;47.30;;;;;;5031437;28;20106;-50
2022/04/24 07:18:14;;;;;;;7.90;6.32;;;14.70;47.40;;;;;;5058998;28;20723;-50
2022/04/24 07:20:41;;;;;;;7.40;6.70;;;14.70;47.20;;;;;;5019161;28;20142;-51
2022/04/24 07:23:07;;;;;;;7.30;6.13;;;14.80;47.30;;;;;;5055586;28;20460;-50
2022/04/24 07:25:40;;;;;;;6.88;5.78;;;14.80;47.10;;;;;;5039616;28;20041;-49
2022/04/24 07:28:08;;;;;;;6.25;5.65;;;14.90;47.10;;;;;;5061211;28;20049;-49
2022/04/24 07:30:35;;;;;;;8.07;6.30;;;15.00;47.00;;;;;;5040692;28;20117;-48
2022/04/24 07:33:05;;;;;;;7.45;6.28;;;15.00;47.10;;;;;;5058617;28;20036;-48
2022/04/24 07:35:34;;;;;;;7.22;6.53;;;15.00;46.90;;;;;;5043347;28;20133;-49
2022/04/24 07:38:02;;;;;;;8.10;5.95;;;15.10;46.80;;;;;;5055958;28;20094;-49
2022/04/24 07:40:31;;;;;;;10.23;6.55;;;15.10;46.60;;;;;;5039960;28;20057;-50
2022/04/24 07:43:00;;;;;;;6.30;5.57;;;15.10;46.50;;;;;;5045968;28;20892;-49
2022/04/24 07:45:35;;;;;;;7.03;6.18;;;15.10;46.70;;;;;;5039169;28;20052;-49
2022/04/24 07:48:05;;;;;;;7.32;5.90;;;15.20;46.60;;;;;;5055450;28;20111;-49
2022/04/24 07:50:40;;;;;;;8.45;6.60;;;15.20;46.40;;;;;;5051966;28;20509;-51
2022/04/24 07:53:07;;;;;;;8.45;6.43;;;15.20;46.80;;;;;;5051445;28;20739;-51
2022/04/24 07:55:34;;;;;;;9.45;6.18;;;15.30;46.50;;;;;;5037433;28;20626;-50
2022/04/24 07:58:01;;;;;;;6.72;5.97;;;15.30;46.50;;;;;;5060488;28;20040;-50
2022/04/24 08:00:30;;;;;;;7.47;6.78;;;15.30;46.50;;;;;;5053416;28;20099;-49
2022/04/24 08:03:01;;;;;;;6.53;5.90;;;15.40;46.60;;;;;;5056468;28;20045;-49
2022/04/24 08:05:39;;;;;;;7.05;6.35;;;15.40;46.30;;;;;;5040724;28;20076;-49
2022/04/24 08:08:14;;;;;;;6.90;6.18;;;15.50;46.60;;;;;;5051849;28;20114;-48
2022/04/24 08:10:45;;;;;;;8.45;6.97;;;15.50;46.30;;;;;;5047383;28;20041;-48
2022/04/24 08:13:11;;;;;;;6.82;6.13;;;15.60;46.10;;;;;;5046967;28;20185;-50
2022/04/24 08:15:41;;;;;;;7.60;6.32;;;15.60;46.00;;;;;;5044114;28;20037;-49
2022/04/24 08:18:10;;;;;;;8.55;6.47;;;15.60;45.90;;;;;;5053631;28;20044;-53
2022/04/24 08:20:38;;;;;;;9.30;6.80;;;15.70;45.90;;;;;;5038717;28;20053;-48
2022/04/24 08:23:05;;;;;;;7.60;5.97;;;15.70;45.70;;;;;;5060714;28;20044;-52
2022/04/24 08:25:35;;;;;;;7.57;6.78;;;15.80;45.60;;;;;;5037333;28;20041;-52
2022/04/24 08:28:07;;;;;;;7.55;6.15;;;15.90;45.60;;;;;;5047407;28;20048;-49
2022/04/24 08:30:45;;;;;;;7.55;6.85;;;15.90;45.50;;;;;;5051104;28;20109;-48
2022/04/24 08:33:15;;;;;;;7.43;6.60;;;16.00;45.30;;;;;;5064766;28;20044;-51
2022/04/24 08:35:43;;;;;;;7.38;6.57;;;16.00;45.20;;;;;;5033909;28;20083;-49
2022/04/24 08:38:10;;;;;;;6.93;6.18;;;16.10;45.10;;;;;;5046942;28;20618;-48
2022/04/24 08:40:37;;;;;;;6.72;6.05;;;16.20;45.20;;;;;;5042760;28;20520;-49
2022/04/24 08:43:04;;;;;;;9.07;7.18;;;16.20;45.00;;;;;;5060992;28;20044;-53
2022/04/24 08:45:32;;;;;;;7.13;6.45;;;16.30;44.90;;;;;;5039971;28;20779;-48
2022/04/24 08:48:00;;;;;;;7.32;6.10;;;16.30;44.80;;;;;;5048084;28;20083;-50
2022/04/24 08:50:30;;;;;;;6.57;5.97;;;16.40;44.60;;;;;;5047682;28;20114;-52
2022/04/24 08:52:57;;;;;;;8.32;6.45;;;16.40;44.80;;;;;;5059059;28;20033;-52
2022/04/24 08:55:29;;;;;;;7.82;6.13;;;16.50;44.60;;;;;;5032443;28;20439;-50
2022/04/24 08:57:56;;;;;;;7.78;5.97;;;16.50;44.40;;;;;;5050385;28;20704;-52
2022/04/24 09:00:25;;;;;;;6.88;6.20;;;16.60;44.60;;;;;;5054672;28;20102;-50
2022/04/24 09:02:52;;;;;;;6.47;5.55;;;16.60;45.00;;;;;;5045672;28;20041;-50
2022/04/24 09:05:21;;;;;;;7.32;6.63;;;16.70;45.00;;;;;;5043504;28;20059;-52
2022/04/24 09:07:48;;;;;;;7.10;6.40;;;16.80;44.80;;;;;;5035901;28;20040;-52
2022/04/24 09:11:07;;;;;;;7.55;6.00;;;16.80;44.80;;;;;;5047355;28;20520;-51
2022/04/24 09:16:38;;;;;;;8.23;6.78;;;17.00;44.30;;;;;;5040898;28;20044;-49
2022/04/24 09:19:22;;;;;;;8.18;6.68;;;17.10;44.00;;;;;;5064306;28;20120;-47
2022/04/24 09:21:50;;;;;;;7.88;6.22;;;17.10;45.10;;;;;;5047700;28;20507;-51
2022/04/24 09:24:17;;;;;;;7.10;6.32;;;17.20;44.40;;;;;;5049429;28;20076;-50
2022/04/24 09:26:58;;;;;;;13.25;6.80;;;17.20;43.90;;;;;;5034365;28;20120;-48
2022/04/24 09:29:24;;;;;;;7.25;6.30;;;17.30;43.20;;;;;;5066226;28;20659;-50
2022/04/24 09:31:53;;;;;;;11.95;7.10;;;17.30;43.40;;;;;;5048946;28;20583;-47
2022/04/24 09:34:27;;;;;;;6.72;6.13;;;17.40;43.20;;;;;;5051228;28;20087;-46
2022/04/24 09:37:03;;;;;;;6.80;6.10;;;17.50;43.30;;;;;;5040979;28;20044;-47
2022/04/24 09:39:32;;;;;;;7.57;5.85;;;17.50;43.00;;;;;;5064546;28;20044;-49
2022/04/24 09:42:06;;;;;;;6.90;6.25;;;17.60;43.10;;;;;;5040725;28;20048;-47
2022/04/24 09:44:39;;;;;;;7.95;6.80;;;17.70;42.80;;;;;;5048115;28;20543;-51
2022/04/24 09:47:26;;;;;;;7.20;6.40;;;17.70;42.50;;;;;;5059252;28;20197;-46
2022/04/24 09:49:54;;;;;;;9.90;6.10;;;17.80;42.50;;;;;;5048439;28;20048;-53
2022/04/24 09:52:24;;;;;;;7.57;6.45;;;17.80;42.40;;;;;;5045992;28;20036;-49
2022/04/24 09:54:53;;;;;;;7.05;5.90;;;17.90;42.50;;;;;;5036719;28;20039;-53
2022/04/24 09:57:22;;;;;;;7.35;5.80;;;17.90;42.60;;;;;;5048071;28;20044;-45
2022/04/24 09:59:50;;;;;;;7.13;6.43;;;18.00;42.40;;;;;;5056802;28;20037;-52
2022/04/24 10:02:18;;;;;;;7.78;6.65;;;18.00;42.30;;;;;;5047548;28;20041;-47
2022/04/24 10:04:47;;;;;;;6.93;6.20;;;18.10;42.30;;;;;;5054382;28;20569;-52
2022/04/24 10:07:16;;;;;;;7.35;6.18;;;18.10;42.20;;;;;;5039917;28;20052;-47
2022/04/24 10:09:45;;;;;;;7.57;5.90;;;18.20;42.20;;;;;;5054897;28;20037;-53
2022/04/24 10:12:15;;;;;;;6.90;6.13;;;18.30;42.00;;;;;;5051413;28;20032;-49
2022/04/24 10:14:58;;;;;;;8.45;6.82;;;18.30;41.70;;;;;;5050497;28;20654;-52
2022/04/24 10:17:27;;;;;;;6.80;6.10;;;18.40;41.40;;;;;;5050231;28;20062;-50
2022/04/24 10:20:15;;;;;;;6.85;6.15;;;18.40;41.40;;;;;;5050627;28;20147;-53
2022/04/24 10:22:45;;;;;;;6.32;5.72;;;18.50;41.10;;;;;;5054030;28;20044;-51
2022/04/24 10:25:16;;;;;;;9.00;5.90;;;18.50;41.10;;;;;;5034274;28;21191;-51
2022/04/24 10:27:45;;;;;;;9.82;6.20;;;18.60;41.50;;;;;;5055607;28;20374;-47
2022/04/24 10:30:24;;;;;;;6.65;6.03;;;18.60;41.40;;;;;;5040345;28;20079;-50
2022/04/24 10:33:18;;;;;;;7.60;6.88;;;18.70;40.70;;;;;;5064222;28;20071;-46
2022/04/24 10:35:45;;;;;;;;;;;18.80;40.50;;;;;;5039801;28;20409;-52
2022/04/24 10:38:12;;;;;;;6.10;5.30;;;18.90;40.90;;;;;;5056271;28;19963;-51
2022/04/24 10:40:39;;;;;;;7.57;6.55;;;18.90;40.90;;;;;;5033362;28;20159;-50
2022/04/24 10:43:07;;;;;;;6.57;5.97;;;18.90;40.80;;;;;;5043213;28;20098;-49
2022/04/24 10:45:45;;;;;;;8.13;7.32;;;19.00;40.60;;;;;;5039743;28;20665;-51
2022/04/24 10:48:16;;;;;;;7.55;6.85;;;19.00;40.30;;;;;;5059170;28;20415;-46
2022/04/24 10:50:47;;;;;;;9.80;7.20;;;19.10;40.00;;;;;;5051349;28;20052;-49
2022/04/24 10:53:14;;;;;;;7.75;6.90;;;19.20;40.00;;;;;;5049966;28;20049;-50
2022/04/24 10:55:43;;;;;;;6.82;5.95;;;19.20;40.10;;;;;;5045552;28;20037;-51
2022/04/24 10:58:28;;;;;;;9.60;6.60;;;19.20;40.00;;;;;;5062112;28;20072;-50
2022/04/24 11:00:54;;;;;;;7.55;6.82;;;19.30;39.50;;;;;;5043351;28;20064;-54
2022/04/24 11:03:21;;;;;;;10.50;7.65;;;19.40;39.70;;;;;;5058213;28;20083;-52
2022/04/24 11:05:52;;;;;;;11.98;7.22;;;19.40;39.50;;;;;;5040179;28;20051;-52
2022/04/24 11:08:21;;;;;;;9.52;7.63;;;19.40;39.70;;;;;;5050262;28;20040;-55
2022/04/24 11:10:49;;;;;;;8.30;6.90;;;19.50;39.70;;;;;;5045078;28;20033;-54
2022/04/24 11:13:20;;;;;;;7.78;7.00;;;19.50;39.20;;;;;;5051213;28;20052;-50
2022/04/24 11:15:49;;;;;;;7.78;6.55;;;19.60;39.50;;;;;;5036237;28;20091;-54
2022/04/24 11:18:20;;;;;;;7.85;7.00;;;19.60;39.50;;;;;;5060986;28;20049;-50
2022/04/24 11:21:01;;;;;;;8.38;6.57;;;19.70;38.90;;;;;;5040850;28;20322;-52
2022/04/24 11:23:30;;;;;;;8.85;7.13;;;19.80;39.10;;;;;;5061107;28;20044;-52
2022/04/24 11:25:58;;;;;;;7.22;6.32;;;19.80;38.60;;;;;;5036417;28;20049;-51
2022/04/24 11:28:37;;;;;;;7.00;6.30;;;19.80;39.10;;;;;;5052355;28;20045;-53
2022/04/24 11:31:08;;;;;;;7.00;6.10;;;19.90;38.60;;;;;;5038050;28;20052;-52
2022/04/24 11:33:37;;;;;;;7.63;6.87;;;20.00;38.40;;;;;;5043437;28;20064;-55
2022/04/24 11:36:05;;;;;;;8.23;6.35;;;20.00;38.30;;;;;;5043184;28;20106;-52
2022/04/24 11:38:33;;;;;;;6.80;6.20;;;20.10;37.90;;;;;;5056297;28;20043;-49
2022/04/24 11:41:03;;;;;;;6.30;5.68;;;20.20;38.20;;;;;;5047516;28;20052;-54
2022/04/24 11:43:30;;;;;;;5.88;5.28;;;20.20;37.80;;;;;;5060886;28;20068;-51
2022/04/24 11:51:32;;;;;;;7.97;5.68;;;20.40;37.90;;;;;;5034412;28;20106;-50
2022/04/24 11:54:10;;;;;;;6.68;5.93;;;20.50;37.80;;;;;;5052867;28;20045;-55
2022/04/24 11:56:38;;;;;;;7.82;5.97;;;20.60;37.50;;;;;;5038273;28;20056;-49
2022/04/24 11:59:14;;;;;;;6.38;5.78;;;20.70;37.60;;;;;;5065498;28;20508;-52
2022/04/24 12:01:42;;;;;;;6.35;5.63;;;20.80;36.80;;;;;;5038561;28;20338;-50
2022/04/24 12:04:16;;;;;;;7.38;5.70;;;20.90;36.90;;;;;;5052210;28;20052;-52
2022/04/24 12:06:43;;;;;;;6.47;5.63;;;21.00;36.90;;;;;;5043014;28;20123;-53
2022/04/24 12:09:10;;;;;;;5.95;5.13;;;21.10;36.30;;;;;;5060065;28;20045;-51
2022/04/24 12:11:37;;;;;;;5.82;5.32;;;21.10;36.20;;;;;;5034502;28;20068;-49
2022/04/24 12:14:11;;;;;;;6.20;5.60;;;21.20;36.20;;;;;;5067151;28;20044;-53
2022/04/24 12:16:45;;;;;;;5.43;4.60;;;21.20;35.80;;;;;;5038388;28;20138;-52
2022/04/24 12:19:18;;;;;;;5.72;4.72;;;21.30;35.80;;;;;;5052018;28;20075;-54
2022/04/24 12:21:49;;;;;;;6.55;4.95;;;21.30;35.30;;;;;;5040557;28;20068;-54
2022/04/24 12:24:18;;;;;;;5.95;5.30;;;21.30;35.20;;;;;;5056335;28;20090;-54
2022/04/24 12:26:49;;;;;;;4.88;4.40;;;21.40;35.10;;;;;;5038104;28;20396;-50
2022/04/24 12:29:17;;;;;;;5.47;4.40;;;21.40;35.10;;;;;;5066020;28;20049;-49
2022/04/24 12:31:47;;;;;;;7.15;4.55;;;21.50;36.20;;;;;;5040689;28;20102;-49
2022/04/24 12:34:15;;;;;;;5.78;5.22;;;21.70;35.90;;;;;;5059858;28;20044;-50
2022/04/24 12:36:52;;;;;;;5.95;5.45;;;21.80;35.90;;;;;;5050271;22;20096;-56
2022/04/24 12:39:25;;;;;;;5.65;5.00;;;22.00;35.50;;;;;;5030805;28;20049;-54
2022/04/24 12:41:52;;;;;;;5.32;4.82;;;22.10;35.00;;;;;;5026050;28;20044;-56
2022/04/24 12:44:19;;;;;;;8.45;5.25;;;22.20;34.30;;;;;;5038800;28;20382;-57
2022/04/24 12:46:53;;;;;;;5.35;4.95;;;22.40;33.90;;;;;;5022928;28;20044;-57
2022/04/24 12:49:30;;;;;;;5.25;4.72;;;22.40;34.10;;;;;;5048286;28;20041;-55
2022/04/24 12:51:58;;;;;;;5.88;5.38;;;22.40;33.10;;;;;;5032634;28;20041;-57
2022/04/24 12:54:25;;;;;;;4.88;4.28;;;22.50;33.10;;;;;;5034608;28;20041;-57
2022/04/24 12:56:52;;;;;;;4.80;4.40;;;22.40;33.10;;;;;;5025641;28;20040;-56
2022/04/24 12:59:19;;;;;;;5.30;4.80;;;22.40;32.90;;;;;;5030775;28;20053;-57
2022/04/24 13:01:46;;;;;;;4.72;4.32;;;22.40;33.30;;;;;;5027386;28;20455;-56
2022/04/24 13:04:21;;;;;;;4.80;4.40;;;22.40;33.40;;;;;;5041222;28;20049;-57
2022/04/24 13:06:49;;;;;;;5.28;4.78;;;22.50;33.60;;;;;;5021965;28;20092;-57
2022/04/24 13:09:21;;;;;;;5.30;4.75;;;22.60;33.20;;;;;;5040158;28;20124;-56